Time;durP1;ratioP1;P1;durP2;ratioP2;P2;SDS_P1;SDS_P2;PMS_P1;PMS_P2;Temp;Humidity;BMP_temperature;BMP_pressure;BME280_temperature;BME280_humidity;BME280_pressure;Samples;Min_cycle;Max_cycle;Signal;HPM_P1;HPM_P2
2022/12/02 00:01:04;;;;;;;62.50;23.17;;;6.00;99.90;;;;;;5000792;28;20383;-71
2022/12/02 00:03:34;;;;;;;61.15;23.10;;;5.90;99.90;;;;;;5001923;28;20040;-73
2022/12/02 00:06:00;;;;;;;57.40;22.50;;;5.90;99.90;;;;;;4999524;28;20312;-71
2022/12/02 00:08:31;;;;;;;60.10;23.08;;;5.90;99.90;;;;;;5017331;28;20023;-72
2022/12/02 00:11:00;;;;;;;61.55;23.67;;;5.90;99.90;;;;;;5000576;28;20080;-72
2022/12/02 00:13:27;;;;;;;56.78;22.27;;;5.90;99.90;;;;;;5004689;28;20048;-72
2022/12/02 00:16:02;;;;;;;57.47;22.17;;;5.90;99.90;;;;;;5001810;28;20064;-72
2022/12/02 00:18:28;;;;;;;55.13;21.08;;;5.90;99.90;;;;;;5001086;28;20034;-72
2022/12/02 00:20:55;;;;;;;50.42;21.42;;;5.90;99.90;;;;;;4999918;28;20015;-72
2022/12/02 00:23:21;;;;;;;53.22;21.90;;;5.80;99.90;;;;;;4999099;28;20614;-72
2022/12/02 00:25:52;;;;;;;55.60;22.58;;;5.80;99.90;;;;;;5003474;28;20117;-72
2022/12/02 00:28:18;;;;;;;50.47;20.95;;;5.80;99.90;;;;;;5001605;28;20057;-72
2022/12/02 00:30:46;;;;;;;53.88;21.80;;;5.80;99.90;;;;;;5004396;28;20053;-70
2022/12/02 00:33:12;;;;;;;57.92;21.83;;;5.90;99.90;;;;;;5005473;28;20029;-72
2022/12/02 00:35:40;;;;;;;51.60;20.88;;;5.90;99.90;;;;;;5002430;28;20459;-71
2022/12/02 00:38:05;;;;;;;49.30;20.90;;;5.90;99.90;;;;;;5000181;28;20545;-72
2022/12/02 00:40:31;;;;;;;52.67;21.05;;;5.90;99.90;;;;;;4998446;28;20031;-72
2022/12/02 00:46:30;;;;;;;49.85;20.85;;;5.90;99.90;;;;;;5001951;28;20030;-72
2022/12/02 00:48:29;;;;;;;46.55;18.95;;;5.90;99.90;;;;;;4999366;28;20040;-71
2022/12/02 00:50:55;;;;;;;45.47;19.25;;;5.90;99.90;;;;;;5002045;28;20367;-71
2022/12/02 00:53:21;;;;;;;45.67;18.90;;;5.90;99.90;;;;;;4999554;28;20034;-68
2022/12/02 00:55:47;;;;;;;48.63;20.33;;;5.90;99.90;;;;;;4998874;28;20424;-71
2022/12/02 00:58:14;;;;;;;47.60;19.38;;;5.90;99.90;;;;;;4999621;28;20065;-73
2022/12/02 01:00:45;;;;;;;51.05;20.58;;;5.90;99.90;;;;;;5001797;28;20027;-74
2022/12/02 01:03:12;;;;;;;48.55;19.45;;;5.90;99.90;;;;;;5002669;28;20037;-73
2022/12/02 01:05:38;;;;;;;44.70;18.63;;;5.90;99.90;;;;;;4999494;28;20398;-72
2022/12/02 01:08:06;;;;;;;47.17;18.85;;;5.90;99.90;;;;;;5001765;28;20815;-72
2022/12/02 01:10:34;;;;;;;53.20;20.42;;;5.90;99.90;;;;;;5006756;28;20030;-73
2022/12/02 01:13:00;;;;;;;48.85;18.38;;;5.90;99.90;;;;;;5001687;28;20072;-71
2022/12/02 01:15:26;;;;;;;42.83;18.25;;;5.90;99.90;;;;;;5001629;28;20522;-72
2022/12/02 01:17:51;;;;;;;45.22;18.75;;;5.90;99.90;;;;;;5000488;28;20092;-73
2022/12/02 01:20:19;;;;;;;48.20;19.85;;;6.00;99.90;;;;;;4999988;28;20030;-70
2022/12/02 01:22:45;;;;;;;46.65;18.92;;;5.90;99.90;;;;;;4998208;28;20436;-73
2022/12/02 01:25:11;;;;;;;46.45;18.27;;;5.90;99.90;;;;;;5001934;28;20094;-70
2022/12/02 01:27:37;;;;;;;46.65;19.98;;;6.00;99.90;;;;;;5000364;28;20044;-71
2022/12/02 01:30:03;;;;;;;52.75;20.50;;;5.90;99.90;;;;;;5007159;28;20050;-73
2022/12/02 01:32:31;;;;;;;49.10;18.92;;;5.90;99.90;;;;;;4998602;28;20470;-70
2022/12/02 01:34:57;;;;;;;47.95;19.40;;;5.90;99.90;;;;;;5000539;28;20045;-71
2022/12/02 01:37:22;;;;;;;49.60;19.60;;;5.90;99.90;;;;;;4999112;28;20019;-72
2022/12/02 01:39:48;;;;;;;52.90;20.63;;;5.90;99.90;;;;;;4997722;28;20030;-69
2022/12/02 01:42:14;;;;;;;52.80;18.35;;;5.90;99.90;;;;;;5000322;28;20030;-71
2022/12/02 01:44:42;;;;;;;52.22;20.48;;;5.80;99.90;;;;;;5000068;28;20037;-72
2022/12/02 01:47:07;;;;;;;50.50;20.05;;;5.80;99.90;;;;;;5014811;28;20033;-72
2022/12/02 01:49:38;;;;;;;51.50;20.23;;;5.80;99.90;;;;;;5001547;28;20017;-72
2022/12/02 01:52:04;;;;;;;55.75;21.38;;;5.80;99.90;;;;;;5002938;28;20038;-71
2022/12/02 01:54:33;;;;;;;53.13;19.63;;;5.80;99.90;;;;;;5002832;28;20030;-72
2022/12/02 01:56:59;;;;;;;56.45;19.95;;;5.80;99.90;;;;;;5006461;28;20032;-72
2022/12/02 01:59:27;;;;;;;58.10;20.73;;;5.80;99.90;;;;;;5000608;28;20022;-71
2022/12/02 02:01:53;;;;;;;56.30;20.48;;;5.80;99.90;;;;;;5003454;28;20022;-71
2022/12/02 02:04:19;;;;;;;60.42;22.17;;;5.80;99.90;;;;;;5003729;28;20032;-72
2022/12/02 02:06:46;;;;;;;50.00;20.20;;;5.80;99.90;;;;;;5001602;28;20029;-71
2022/12/02 02:09:13;;;;;;;58.20;19.98;;;5.80;99.90;;;;;;5009416;28;20029;-72
2022/12/02 02:11:42;;;;;;;59.95;21.05;;;5.80;99.90;;;;;;5005671;28;20580;-73
2022/12/02 02:14:12;;;;;;;58.20;23.00;;;5.80;99.90;;;;;;5006031;28;20487;-73
2022/12/02 02:16:41;;;;;;;53.13;22.08;;;5.70;99.90;;;;;;5005053;28;20022;-73
2022/12/02 02:19:12;;;;;;;63.50;21.77;;;5.60;99.90;;;;;;5005279;28;20030;-70
2022/12/02 02:21:44;;;;;;;59.33;21.10;;;5.60;99.90;;;;;;5002580;28;20030;-73
2022/12/02 02:24:10;;;;;;;55.30;19.20;;;5.60;99.90;;;;;;5006521;28;20789;-72
2022/12/02 02:26:36;;;;;;;52.65;18.70;;;5.70;99.90;;;;;;5004709;28;20121;-71
2022/12/02 02:29:02;;;;;;;51.83;20.05;;;5.70;99.90;;;;;;5004962;28;20022;-72
2022/12/02 02:31:27;;;;;;;53.78;19.60;;;5.60;99.90;;;;;;5000997;28;20030;-71
2022/12/02 02:33:53;;;;;;;51.50;18.67;;;5.70;99.90;;;;;;5004147;28;20046;-69
2022/12/02 02:36:19;;;;;;;57.63;20.23;;;5.60;99.90;;;;;;5003543;28;20034;-72
2022/12/02 02:38:45;;;;;;;51.58;19.65;;;5.60;99.90;;;;;;5004263;28;20026;-73
2022/12/02 02:41:11;;;;;;;57.33;20.20;;;5.60;99.90;;;;;;5006347;28;20030;-71
2022/12/02 02:43:40;;;;;;;54.33;20.55;;;5.60;99.90;;;;;;5004027;28;20045;-72
2022/12/02 02:46:07;;;;;;;55.53;19.90;;;5.60;99.90;;;;;;5011418;28;20087;-73
2022/12/02 02:48:33;;;;;;;52.53;18.50;;;5.60;99.90;;;;;;5003759;28;20041;-72
2022/12/02 02:50:59;;;;;;;53.67;19.67;;;5.60;99.90;;;;;;5007567;28;20030;-70
2022/12/02 02:53:26;;;;;;;51.15;19.20;;;5.60;99.90;;;;;;5006849;28;20030;-70
2022/12/02 02:55:52;;;;;;;50.05;19.02;;;5.70;99.90;;;;;;5004228;28;20034;-72
2022/12/02 02:58:23;;;;;;;54.22;20.20;;;5.70;99.90;;;;;;5004102;28;20374;-73
2022/12/02 03:01:15;;;;;;;46.25;18.67;;;5.70;99.90;;;;;;5009152;28;20063;-71
2022/12/02 03:03:47;;;;;;;50.25;18.02;;;5.70;99.90;;;;;;5002190;28;20026;-73
2022/12/02 03:06:16;;;;;;;49.28;18.20;;;5.70;99.90;;;;;;5002292;28;20064;-72
2022/12/02 03:08:45;;;;;;;50.03;17.98;;;5.80;99.90;;;;;;5001243;28;20038;-72
2022/12/02 03:11:11;;;;;;;51.45;19.65;;;5.80;99.90;;;;;;5003981;28;20022;-71
2022/12/02 03:13:38;;;;;;;51.80;19.08;;;5.80;99.90;;;;;;5002683;28;20022;-72
2022/12/02 03:16:09;;;;;;;43.60;18.17;;;5.80;99.90;;;;;;5003185;28;20108;-72
2022/12/02 03:18:39;;;;;;;47.58;17.75;;;5.80;99.90;;;;;;5003815;28;20110;-72
2022/12/02 03:21:07;;;;;;;48.92;19.23;;;5.70;99.90;;;;;;5003912;28;20053;-72
2022/12/02 03:23:34;;;;;;;51.35;18.67;;;5.80;99.90;;;;;;5006411;28;20080;-71
2022/12/02 03:26:03;;;;;;;50.63;18.55;;;5.80;99.90;;;;;;5002835;28;20096;-73
2022/12/02 03:28:29;;;;;;;50.60;17.77;;;5.80;99.90;;;;;;5002015;28;20029;-72
2022/12/02 03:30:55;;;;;;;50.58;18.15;;;5.80;99.90;;;;;;5004686;28;20030;-73
2022/12/02 03:33:21;;;;;;;51.85;18.45;;;5.70;99.90;;;;;;5013732;28;20042;-72
2022/12/02 03:35:48;;;;;;;45.22;17.70;;;5.70;99.90;;;;;;5003319;28;20048;-72
2022/12/02 03:38:16;;;;;;;50.67;18.45;;;5.80;99.90;;;;;;5004155;28;20026;-72
2022/12/02 03:40:42;;;;;;;53.55;18.95;;;5.80;99.90;;;;;;5000743;28;20038;-72
2022/12/02 03:43:08;;;;;;;46.83;18.35;;;5.80;99.90;;;;;;5006819;28;20855;-73
2022/12/02 03:45:34;;;;;;;48.42;19.67;;;5.80;99.90;;;;;;4999097;28;20453;-72
2022/12/02 03:48:01;;;;;;;47.70;18.95;;;5.70;99.90;;;;;;4998277;28;20042;-71
2022/12/02 03:50:30;;;;;;;47.90;18.95;;;5.70;99.90;;;;;;5003415;28;20121;-71
2022/12/02 03:52:56;;;;;;;52.72;19.83;;;5.70;99.90;;;;;;5002982;28;20540;-71
2022/12/02 03:55:22;;;;;;;50.45;19.85;;;5.70;99.90;;;;;;5015589;28;20440;-69
2022/12/02 03:57:48;;;;;;;51.50;20.25;;;5.70;99.90;;;;;;5006813;28;20100;-70
2022/12/02 04:00:14;;;;;;;58.53;19.55;;;5.70;99.90;;;;;;5000663;28;20455;-73
2022/12/02 04:02:40;;;;;;;55.65;19.65;;;5.70;99.90;;;;;;5004200;28;20018;-72
2022/12/02 04:05:06;;;;;;;48.30;18.42;;;5.70;99.90;;;;;;5017103;28;20033;-70
2022/12/02 04:07:31;;;;;;;51.47;19.80;;;5.80;99.90;;;;;;4998804;28;20033;-69
2022/12/02 04:09:57;;;;;;;51.20;19.00;;;5.70;99.90;;;;;;5000766;28;20048;-72
2022/12/02 04:12:23;;;;;;;55.85;19.25;;;5.80;99.90;;;;;;4998656;28;20105;-73
2022/12/02 04:14:51;;;;;;;54.03;19.98;;;5.80;99.90;;;;;;4996754;28;20038;-72
2022/12/02 04:17:16;;;;;;;52.90;18.63;;;5.80;99.90;;;;;;5001330;28;20037;-72
2022/12/02 04:19:42;;;;;;;52.22;19.40;;;5.80;99.90;;;;;;5000473;28;20018;-72
2022/12/02 04:22:07;;;;;;;57.70;19.60;;;5.80;99.90;;;;;;5002033;28;20083;-73
2022/12/02 04:24:38;;;;;;;54.20;20.13;;;5.80;99.90;;;;;;4999281;28;20055;-72
2022/12/02 04:27:04;;;;;;;53.55;19.77;;;5.80;99.90;;;;;;5020600;28;20023;-73
2022/12/02 04:29:32;;;;;;;59.78;21.10;;;5.80;99.90;;;;;;5003941;28;20096;-74
2022/12/02 04:31:57;;;;;;;51.10;18.88;;;5.80;99.90;;;;;;5005960;28;20136;-75
2022/12/02 04:34:23;;;;;;;43.15;17.58;;;5.80;99.90;;;;;;5000185;28;20141;-73
2022/12/02 04:36:51;;;;;;;53.15;20.98;;;5.80;99.90;;;;;;5004642;28;20068;-74
2022/12/02 04:39:17;;;;;;;51.30;19.90;;;5.80;99.90;;;;;;5004980;28;20054;-74
2022/12/02 04:41:44;;;;;;;54.30;19.42;;;5.90;99.90;;;;;;5002815;28;20073;-72
2022/12/02 04:44:10;;;;;;;43.20;18.00;;;5.90;99.90;;;;;;5015333;28;20113;-70
2022/12/02 04:46:36;;;;;;;51.38;18.73;;;5.90;99.90;;;;;;5017724;28;20125;-70
2022/12/02 04:49:01;;;;;;;49.45;19.08;;;5.90;99.90;;;;;;5006629;28;20029;-72
2022/12/02 04:51:27;;;;;;;51.17;18.25;;;5.90;99.90;;;;;;4998080;28;20045;-71
2022/12/02 04:53:55;;;;;;;50.78;19.30;;;5.90;99.90;;;;;;5002610;28;20081;-70
2022/12/02 04:56:21;;;;;;;53.60;19.58;;;5.90;99.90;;;;;;4998835;28;20105;-72
2022/12/02 04:58:46;;;;;;;50.78;18.95;;;5.80;99.90;;;;;;5000411;28;20014;-72
2022/12/02 05:01:12;;;;;;;50.28;19.23;;;5.80;99.90;;;;;;5002282;28;20022;-72
2022/12/02 05:03:38;;;;;;;51.97;19.48;;;5.80;99.90;;;;;;5005119;28;20163;-72
2022/12/02 05:06:03;;;;;;;53.08;19.63;;;5.80;99.90;;;;;;5001758;28;20392;-72
2022/12/02 05:08:29;;;;;;;46.88;18.63;;;5.80;99.90;;;;;;5017042;28;20536;-73
2022/12/02 05:10:54;;;;;;;50.13;20.13;;;5.80;99.90;;;;;;5000368;28;20558;-72
2022/12/02 05:13:20;;;;;;;47.78;19.90;;;5.80;99.90;;;;;;5004080;28;20065;-72
2022/12/02 05:15:46;;;;;;;49.35;18.63;;;5.80;99.90;;;;;;5005991;28;20074;-71
2022/12/02 05:18:11;;;;;;;51.10;19.35;;;5.80;99.90;;;;;;5014755;28;20470;-72
2022/12/02 05:20:40;;;;;;;51.03;20.15;;;5.80;99.90;;;;;;4996559;28;20030;-71
2022/12/02 05:23:06;;;;;;;52.45;19.83;;;5.80;99.90;;;;;;5004383;28;20176;-72
2022/12/02 05:25:34;;;;;;;46.97;18.92;;;5.80;99.90;;;;;;4997031;28;20034;-74
2022/12/02 05:28:02;;;;;;;45.63;17.35;;;5.80;99.90;;;;;;4999060;28;20104;-72
2022/12/02 05:30:27;;;;;;;51.55;19.35;;;5.80;99.90;;;;;;5006465;28;20037;-73
2022/12/02 05:32:53;;;;;;;56.60;19.65;;;5.80;99.90;;;;;;5002806;28;20045;-72
2022/12/02 05:35:21;;;;;;;57.92;19.88;;;5.80;99.90;;;;;;5003779;28;20033;-72
2022/12/02 05:37:47;;;;;;;45.72;18.58;;;5.80;99.90;;;;;;5020898;28;20025;-71
2022/12/02 05:40:12;;;;;;;52.95;18.73;;;5.80;99.90;;;;;;5000822;28;20019;-72
2022/12/02 05:42:39;;;;;;;53.55;20.27;;;5.80;99.90;;;;;;5015878;28;20414;-71
2022/12/02 05:45:19;;;;;;;53.72;19.67;;;5.80;99.90;;;;;;5004979;28;20030;-72
2022/12/02 05:47:51;;;;;;;51.22;19.45;;;5.80;99.90;;;;;;5016598;28;20467;-73
2022/12/02 05:50:17;;;;;;;58.67;20.88;;;5.80;99.90;;;;;;5006167;28;20037;-72
2022/12/02 05:52:43;;;;;;;56.13;19.58;;;5.80;99.90;;;;;;4999060;28;20045;-70
2022/12/02 05:55:18;;;;;;;59.88;20.40;;;5.80;99.90;;;;;;5002089;28;20033;-72
2022/12/02 05:57:44;;;;;;;54.63;20.23;;;5.80;99.90;;;;;;5004934;28;20018;-69
2022/12/02 06:00:17;;;;;;;51.53;20.23;;;5.70;99.90;;;;;;5001351;28;20025;-72
2022/12/02 06:02:44;;;;;;;59.35;20.13;;;5.70;99.90;;;;;;5005194;28;20431;-72
2022/12/02 06:05:38;;;;;;;63.55;21.10;;;5.60;99.90;;;;;;5007009;28;20032;-71
2022/12/02 06:08:24;;;;;;;61.67;20.45;;;5.60;99.90;;;;;;5004634;28;20037;-72
2022/12/02 06:11:00;;;;;;;57.35;21.05;;;5.60;99.90;;;;;;5004686;28;20128;-72
2022/12/02 06:13:28;;;;;;;66.03;21.10;;;5.60;99.90;;;;;;5003450;28;20029;-72
2022/12/02 06:15:54;;;;;;;61.53;20.13;;;5.50;99.90;;;;;;5002916;28;20026;-73
2022/12/02 06:18:26;;;;;;;51.08;19.20;;;5.50;99.90;;;;;;5018335;28;20093;-72
2022/12/02 06:21:01;;;;;;;58.45;19.60;;;5.50;99.90;;;;;;5003455;28;20032;-69
2022/12/02 06:23:29;;;;;;;60.85;18.90;;;5.50;99.90;;;;;;5004464;28;20092;-73
2022/12/02 06:26:00;;;;;;;55.08;17.05;;;5.40;99.90;;;;;;5006157;28;20149;-72
2022/12/02 06:28:38;;;;;;;54.13;18.05;;;5.40;99.90;;;;;;5004173;28;20438;-72
2022/12/02 06:31:20;;;;;;;51.50;19.02;;;5.30;99.90;;;;;;5006487;28;20034;-72
2022/12/02 06:33:48;;;;;;;49.27;18.97;;;5.30;99.90;;;;;;5001901;28;20125;-71
2022/12/02 06:36:32;;;;;;;43.38;16.75;;;5.30;99.90;;;;;;5004536;28;20029;-72
2022/12/02 06:39:05;;;;;;;43.03;15.65;;;5.30;99.90;;;;;;5005674;28;20116;-72
2022/12/02 06:41:35;;;;;;;42.00;14.60;;;5.30;99.90;;;;;;5005565;28;20081;-72
2022/12/02 06:47:01;;;;;;;42.08;13.85;;;5.20;99.90;;;;;;5017163;28;20151;-75
2022/12/02 06:49:36;;;;;;;41.47;13.57;;;5.20;99.90;;;;;;5004775;28;20808;-76
2022/12/02 06:52:19;;;;;;;41.65;14.73;;;5.10;99.90;;;;;;5003774;28;20455;-74
2022/12/02 06:54:45;;;;;;;51.90;14.25;;;5.00;99.90;;;;;;5007462;28;20036;-74
2022/12/02 06:57:13;;;;;;;37.65;14.55;;;5.00;99.90;;;;;;5001876;28;20659;-74
2022/12/02 06:59:41;;;;;;;42.60;13.57;;;5.00;99.90;;;;;;5020614;28;20382;-73
2022/12/02 07:02:19;;;;;;;38.33;14.68;;;5.10;99.90;;;;;;5017088;28;20030;-75
2022/12/02 07:04:50;;;;;;;42.22;15.48;;;5.10;99.90;;;;;;5020999;28;20018;-74
2022/12/02 07:07:38;;;;;;;42.65;15.93;;;5.10;99.90;;;;;;5009096;28;20042;-75
2022/12/02 07:10:12;;;;;;;44.25;16.40;;;5.00;99.90;;;;;;5014173;28;20054;-74
2022/12/02 07:12:41;;;;;;;45.33;15.05;;;5.10;99.90;;;;;;5013363;28;20033;-74
2022/12/02 07:15:32;;;;;;;48.33;16.75;;;5.00;99.90;;;;;;5012284;28;20033;-75
2022/12/02 07:18:25;;;;;;;43.45;17.02;;;5.00;99.90;;;;;;5025514;28;20479;-74
2022/12/02 07:20:51;;;;;;;54.40;19.23;;;5.00;99.90;;;;;;5014869;28;20049;-74
2022/12/02 07:23:22;;;;;;;60.70;19.17;;;5.00;99.90;;;;;;5012729;28;20354;-75
2022/12/02 07:25:55;;;;;;;66.20;19.90;;;5.00;99.90;;;;;;5019509;28;20026;-74
2022/12/02 07:28:35;;;;;;;62.50;19.40;;;4.90;99.90;;;;;;5012117;28;20037;-74
2022/12/02 07:31:22;;;;;;;56.83;20.02;;;5.00;99.90;;;;;;5021326;28;20022;-75
2022/12/02 07:33:50;;;;;;;64.90;20.95;;;5.00;99.90;;;;;;5009644;28;20030;-75
2022/12/02 07:36:16;;;;;;;67.05;21.80;;;5.00;99.90;;;;;;5006581;28;20050;-73
2022/12/02 07:38:42;;;;;;;66.50;22.23;;;5.00;99.90;;;;;;5006719;28;20056;-74
2022/12/02 07:41:07;;;;;;;70.75;22.75;;;5.00;99.90;;;;;;5007709;28;20069;-75
2022/12/02 07:43:36;;;;;;;66.88;23.35;;;5.00;99.90;;;;;;5000383;28;20482;-74
2022/12/02 07:46:02;;;;;;;84.68;25.30;;;5.10;99.90;;;;;;5020556;28;20348;-73
2022/12/02 07:48:28;;;;;;;91.28;27.30;;;5.10;99.90;;;;;;5011110;28;20041;-71
2022/12/02 07:50:53;;;;;;;77.82;23.13;;;5.20;99.90;;;;;;5021970;28;20036;-74
2022/12/02 07:53:19;;;;;;;80.82;24.00;;;5.20;99.90;;;;;;5006762;28;20507;-74
2022/12/02 07:55:47;;;;;;;76.63;23.45;;;5.30;99.90;;;;;;5004022;28;20427;-74
2022/12/02 07:58:13;;;;;;;68.32;20.67;;;5.30;99.90;;;;;;5005547;28;20030;-71
2022/12/02 08:00:39;;;;;;;68.85;22.73;;;5.30;99.90;;;;;;5010080;28;20041;-75
2022/12/02 08:03:04;;;;;;;76.95;23.55;;;5.20;99.90;;;;;;5017581;28;20053;-75
2022/12/02 08:05:30;;;;;;;69.05;23.17;;;5.20;99.90;;;;;;5003005;28;20069;-77
2022/12/02 08:07:55;;;;;;;76.55;23.95;;;5.20;99.90;;;;;;5005819;28;20040;-76
2022/12/02 08:10:26;;;;;;;78.53;24.08;;;5.20;99.90;;;;;;5008532;28;20029;-75
2022/12/02 08:12:51;;;;;;;82.32;23.40;;;5.20;99.90;;;;;;5005618;28;20038;-76
2022/12/02 08:15:17;;;;;;;81.38;22.58;;;5.30;99.90;;;;;;5006150;28;20026;-76
2022/12/02 08:17:43;;;;;;;73.15;23.58;;;5.30;99.90;;;;;;5017082;28;20065;-75
2022/12/02 08:20:12;;;;;;;60.90;20.33;;;5.30;99.90;;;;;;5007341;28;20474;-76
2022/12/02 08:22:38;;;;;;;65.78;21.73;;;5.30;99.90;;;;;;5005417;28;20025;-74
2022/12/02 08:25:04;;;;;;;79.38;21.38;;;5.30;99.90;;;;;;5004486;28;20045;-72
2022/12/02 08:27:30;;;;;;;84.20;25.35;;;5.40;99.90;;;;;;4998364;28;20033;-72
2022/12/02 08:29:58;;;;;;;82.63;24.58;;;5.40;99.90;;;;;;5003395;28;20041;-71
2022/12/02 08:32:23;;;;;;;74.90;22.48;;;5.50;99.90;;;;;;5001848;28;20034;-74
2022/12/02 08:34:51;;;;;;;76.40;22.25;;;5.50;99.90;;;;;;5005416;28;20064;-76
2022/12/02 08:37:17;;;;;;;79.47;21.33;;;5.60;99.90;;;;;;5001795;28;20032;-76
2022/12/02 08:39:43;;;;;;;74.20;21.88;;;5.50;99.90;;;;;;4998625;28;20026;-74
2022/12/02 08:42:09;;;;;;;81.75;21.55;;;5.50;99.90;;;;;;4999405;28;20022;-75
2022/12/02 08:44:34;;;;;;;74.25;21.10;;;5.50;99.90;;;;;;5003545;28;20031;-74
2022/12/02 08:47:00;;;;;;;83.90;22.33;;;5.50;99.90;;;;;;5005284;28;20156;-76
2022/12/02 08:49:26;;;;;;;82.30;22.65;;;5.50;99.90;;;;;;5002073;28;20033;-77
2022/12/02 08:51:52;;;;;;;66.07;20.90;;;5.50;99.90;;;;;;5002126;28;20042;-76
2022/12/02 08:54:18;;;;;;;80.50;23.35;;;5.50;99.90;;;;;;5000744;28;20827;-69
2022/12/02 08:56:48;;;;;;;75.75;21.27;;;5.50;99.90;;;;;;5008513;28;20041;-77
2022/12/02 08:59:13;;;;;;;78.88;22.00;;;5.50;99.90;;;;;;5005505;28;20165;-77
2022/12/02 09:01:39;;;;;;;76.20;20.75;;;5.50;99.90;;;;;;4999756;28;20120;-77
2022/12/02 09:04:05;;;;;;;73.72;20.48;;;5.50;99.90;;;;;;5004499;28;20030;-76
2022/12/02 09:06:30;;;;;;;68.30;20.27;;;5.50;99.90;;;;;;5003152;28;20041;-76
2022/12/02 09:08:56;;;;;;;72.22;20.98;;;5.50;99.90;;;;;;5005714;28;20505;-75
2022/12/02 09:11:24;;;;;;;75.07;19.80;;;5.50;99.90;;;;;;5006995;28;20026;-76
2022/12/02 09:13:50;;;;;;;65.68;19.63;;;5.50;99.90;;;;;;5005696;28;20034;-74
2022/12/02 09:16:16;;;;;;;64.00;18.75;;;5.50;99.90;;;;;;5004915;28;20038;-75
2022/12/02 09:18:41;;;;;;;68.47;19.95;;;5.40;99.90;;;;;;5005721;28;20109;-74
2022/12/02 09:21:07;;;;;;;62.88;21.25;;;5.40;99.90;;;;;;5013090;28;20474;-76
2022/12/02 09:23:33;;;;;;;61.92;18.60;;;5.40;99.90;;;;;;5008121;28;20022;-77
2022/12/02 09:25:59;;;;;;;60.40;19.45;;;5.50;99.90;;;;;;5008426;28;20164;-76
2022/12/02 09:28:27;;;;;;;62.03;20.13;;;5.40;99.90;;;;;;5003961;28;20053;-71
2022/12/02 09:30:52;;;;;;;49.70;18.35;;;5.50;99.90;;;;;;5008358;28;20048;-73
2022/12/02 09:33:18;;;;;;;56.28;19.20;;;5.50;99.90;;;;;;5018553;28;20022;-74
2022/12/02 09:35:46;;;;;;;46.95;16.67;;;5.60;99.90;;;;;;5005592;28;20034;-75
2022/12/02 09:38:12;;;;;;;48.22;16.48;;;5.50;99.90;;;;;;5008268;28;20025;-75
2022/12/02 09:40:41;;;;;;;51.85;17.20;;;5.50;99.90;;;;;;5007544;28;20101;-74
2022/12/02 09:43:07;;;;;;;44.80;15.85;;;5.50;99.90;;;;;;5008759;28;20034;-73
2022/12/02 09:45:33;;;;;;;39.78;15.70;;;5.40;99.90;;;;;;5008230;28;20109;-75
2022/12/02 09:47:58;;;;;;;38.90;15.77;;;5.40;99.90;;;;;;5007325;28;20105;-75
2022/12/02 09:50:25;;;;;;;38.22;15.20;;;5.40;99.90;;;;;;5008422;28;20495;-75
2022/12/02 09:52:53;;;;;;;41.25;15.65;;;5.50;99.90;;;;;;5006664;28;20087;-77
2022/12/02 09:55:21;;;;;;;37.15;14.60;;;5.50;99.90;;;;;;5004682;28;20030;-74
2022/12/02 09:57:49;;;;;;;39.40;14.73;;;5.50;99.90;;;;;;5011000;28;20030;-73
2022/12/02 10:00:19;;;;;;;38.38;13.43;;;5.50;99.90;;;;;;5010877;28;20022;-74
2022/12/02 10:02:56;;;;;;;43.33;16.15;;;5.50;99.90;;;;;;5002945;28;20022;-76
2022/12/02 10:05:27;;;;;;;38.88;14.52;;;5.50;99.90;;;;;;5021693;28;20088;-71
2022/12/02 10:07:57;;;;;;;37.35;15.65;;;5.60;99.90;;;;;;5006244;28;20482;-76
2022/12/02 10:10:37;;;;;;;32.05;13.45;;;5.60;99.90;;;;;;5002401;28;20038;-76
2022/12/02 10:13:03;;;;;;;37.03;14.13;;;5.60;99.90;;;;;;5021257;28;20041;-75
2022/12/02 10:15:32;;;;;;;35.08;13.73;;;5.50;99.90;;;;;;5003687;28;20038;-74
2022/12/02 10:18:07;;;;;;;37.90;14.40;;;5.50;99.90;;;;;;5004739;28;20459;-75
2022/12/02 10:20:32;;;;;;;37.42;14.57;;;5.50;99.90;;;;;;5003621;28;20096;-74
2022/12/02 10:23:13;;;;;;;35.75;14.93;;;5.60;99.90;;;;;;5004610;28;20050;-74
2022/12/02 10:25:43;;;;;;;36.83;14.93;;;5.70;99.90;;;;;;5005046;28;20447;-75
2022/12/02 10:28:21;;;;;;;37.15;16.13;;;5.70;99.90;;;;;;4999031;28;20496;-75
2022/12/02 10:30:53;;;;;;;36.97;14.70;;;5.70;99.90;;;;;;5004467;28;20109;-75
2022/12/02 10:33:26;;;;;;;38.20;14.90;;;5.70;99.90;;;;;;5006310;28;20031;-74
2022/12/02 10:35:56;;;;;;;38.15;15.80;;;5.70;99.90;;;;;;5004711;28;20046;-75
2022/12/02 10:38:30;;;;;;;37.65;14.68;;;5.70;99.90;;;;;;5006344;28;20030;-74
2022/12/02 10:41:11;;;;;;;36.45;14.93;;;5.70;99.90;;;;;;5019013;28;20190;-74
2022/12/02 10:43:37;;;;;;;39.05;15.88;;;5.70;99.90;;;;;;5008589;28;20057;-75
2022/12/02 10:46:03;;;;;;;44.20;15.43;;;5.80;99.90;;;;;;5019127;28;20053;-74
2022/12/02 10:48:28;;;;;;;34.85;14.57;;;5.80;99.90;;;;;;5007034;28;20116;-75
2022/12/02 10:50:59;;;;;;;39.60;16.00;;;5.70;99.90;;;;;;5005402;28;20034;-74
2022/12/02 10:53:28;;;;;;;40.88;15.88;;;5.70;99.90;;;;;;5000454;28;20572;-75
2022/12/02 10:55:54;;;;;;;41.25;17.35;;;5.70;99.90;;;;;;5002902;28;20030;-75
2022/12/02 10:58:30;;;;;;;38.28;15.65;;;5.70;99.90;;;;;;5007739;28;20431;-75
2022/12/02 11:00:57;;;;;;;37.05;15.43;;;5.70;99.90;;;;;;5006190;28;20023;-74
2022/12/02 11:03:23;;;;;;;33.47;14.85;;;5.70;99.90;;;;;;5004457;28;20109;-75
2022/12/02 11:05:49;;;;;;;39.42;15.23;;;5.70;99.90;;;;;;4999953;28;20113;-75
2022/12/02 11:08:15;;;;;;;40.72;16.38;;;5.80;99.90;;;;;;5011560;28;20021;-75
2022/12/02 11:10:43;;;;;;;39.25;16.33;;;5.80;99.90;;;;;;5010248;28;20379;-75
2022/12/02 11:13:11;;;;;;;41.45;16.40;;;5.70;99.90;;;;;;5009215;28;20026;-74
2022/12/02 11:15:40;;;;;;;35.33;15.35;;;5.60;99.90;;;;;;5006800;28;20068;-74
2022/12/02 11:18:30;;;;;;;41.55;16.83;;;5.60;99.90;;;;;;5008962;28;20032;-76
2022/12/02 11:21:07;;;;;;;35.47;16.48;;;5.60;99.90;;;;;;5021174;28;20117;-75
2022/12/02 11:23:35;;;;;;;35.58;14.88;;;5.70;99.90;;;;;;5004514;28;20084;-75
2022/12/02 11:26:04;;;;;;;37.75;16.30;;;5.80;99.90;;;;;;5002783;28;20459;-75
2022/12/02 11:28:29;;;;;;;38.72;16.92;;;5.80;99.90;;;;;;5007169;28;20053;-75
2022/12/02 11:31:13;;;;;;;38.65;15.85;;;5.80;99.90;;;;;;5003437;28;20439;-72
2022/12/02 11:33:50;;;;;;;42.58;17.20;;;5.80;99.90;;;;;;5022465;28;20386;-70
2022/12/02 11:36:26;;;;;;;37.72;16.33;;;5.90;99.90;;;;;;5007800;28;20038;-75
2022/12/02 11:38:55;;;;;;;39.10;16.90;;;6.00;99.90;;;;;;5021076;28;20022;-76
2022/12/02 11:41:24;;;;;;;39.67;17.75;;;6.00;99.90;;;;;;5015904;28;20566;-74
2022/12/02 11:43:51;;;;;;;42.70;16.83;;;5.90;99.90;;;;;;5003528;28;20034;-75
2022/12/02 11:46:36;;;;;;;38.65;16.02;;;5.90;99.90;;;;;;4999593;28;20430;-76
2022/12/02 11:49:02;;;;;;;41.17;15.82;;;5.90;99.90;;;;;;5005122;28;20042;-75
2022/12/02 11:51:32;;;;;;;35.38;15.68;;;5.80;99.90;;;;;;5010546;28;20394;-79
2022/12/02 11:54:01;;;;;;;39.85;16.63;;;5.70;99.90;;;;;;5005824;28;20617;-78
2022/12/02 11:56:38;;;;;;;43.05;17.05;;;5.70;99.90;;;;;;5004975;28;20117;-76
2022/12/02 11:59:23;;;;;;;38.28;16.83;;;5.60;99.90;;;;;;5029753;28;20112;-80
2022/12/02 12:01:49;;;;;;;46.30;18.50;;;5.70;99.90;;;;;;5001550;28;20876;-78
2022/12/02 12:04:23;;;;;;;44.17;16.40;;;5.60;99.90;;;;;;5022283;28;20029;-79
2022/12/02 12:06:58;;;;;;;39.25;16.50;;;5.60;99.90;;;;;;5009625;28;20228;-80
2022/12/02 12:09:28;;;;;;;43.45;17.02;;;5.70;99.90;;;;;;5007615;28;20385;-77
2022/12/02 12:12:12;;;;;;;42.90;16.25;;;5.60;99.90;;;;;;5004872;28;20036;-77
2022/12/02 12:14:58;;;;;;;35.17;16.90;;;5.60;99.90;;;;;;5006513;28;20044;-76
2022/12/02 12:17:41;;;;;;;40.88;17.33;;;5.70;99.90;;;;;;5005342;28;20025;-79
2022/12/02 12:20:15;;;;;;;35.60;15.80;;;5.70;99.90;;;;;;5000678;28;20034;-80
2022/12/02 12:22:41;;;;;;;45.80;17.65;;;5.70;99.90;;;;;;5002189;28;20084;-78
2022/12/02 12:25:34;;;;;;;44.38;17.98;;;5.50;99.90;;;;;;4999135;28;20747;-77
2022/12/02 12:28:00;;;;;;;42.40;17.48;;;5.50;99.90;;;;;;5015805;28;20030;-76
2022/12/02 12:30:25;;;;;;;41.95;17.70;;;5.60;99.90;;;;;;5018373;28;20337;-77
2022/12/02 12:32:51;;;;;;;47.72;18.38;;;5.70;99.90;;;;;;5007111;28;20038;-77
2022/12/02 12:35:17;;;;;;;42.63;18.55;;;5.60;99.90;;;;;;5001155;28;20082;-77
2022/12/02 12:37:42;;;;;;;46.67;19.45;;;5.60;99.90;;;;;;5000186;28;20038;-72
2022/12/02 12:40:13;;;;;;;53.35;20.13;;;5.60;99.90;;;;;;5000090;28;20023;-79
2022/12/02 12:42:41;;;;;;;49.83;21.73;;;5.60;99.90;;;;;;4999978;28;20092;-76
2022/12/02 12:45:09;;;;;;;47.78;18.52;;;5.60;99.90;;;;;;5008336;28;20058;-77
2022/12/02 12:47:35;;;;;;;48.45;20.13;;;5.50;99.90;;;;;;4999524;28;20022;-76
2022/12/02 12:50:00;;;;;;;53.90;19.38;;;5.50;99.90;;;;;;5004556;28;20023;-78